sensor_id;sensor_type;location;lat;lon;timestamp;P1;durP1;ratioP1;P2;durP2;ratioP2
22628;SDS011;11481;53.694;9.910;2023-06-26T00:01:39;8.32;;;5.95;;
22628;SDS011;11481;53.694;9.910;2023-06-26T00:04:06;8.32;;;6.00;;
22628;SDS011;11481;53.694;9.910;2023-06-26T00:06:33;7.68;;;6.07;;
22628;SDS011;11481;53.694;9.910;2023-06-26T00:09:00;7.78;;;5.38;;
22628;SDS011;11481;53.694;9.910;2023-06-26T00:11:27;7.47;;;5.75;;
22628;SDS011;11481;53.694;9.910;2023-06-26T00:13:56;9.40;;;5.85;;
22628;SDS011;11481;53.694;9.910;2023-06-26T00:16:23;11.32;;;6.55;;
22628;SDS011;11481;53.694;9.910;2023-06-26T00:18:50;8.95;;;6.30;;
22628;SDS011;11481;53.694;9.910;2023-06-26T00:21:16;8.05;;;6.05;;
22628;SDS011;11481;53.694;9.910;2023-06-26T00:23:43;9.00;;;6.10;;
22628;SDS011;11481;53.694;9.910;2023-06-26T00:26:10;8.48;;;6.25;;
22628;SDS011;11481;53.694;9.910;2023-06-26T00:28:37;9.13;;;7.20;;
22628;SDS011;11481;53.694;9.910;2023-06-26T00:31:04;8.88;;;6.55;;
22628;SDS011;11481;53.694;9.910;2023-06-26T00:33:30;8.82;;;6.70;;
22628;SDS011;11481;53.694;9.910;2023-06-26T00:35:57;9.35;;;6.93;;
22628;SDS011;11481;53.694;9.910;2023-06-26T00:38:24;8.88;;;6.28;;
22628;SDS011;11481;53.694;9.910;2023-06-26T00:40:50;9.13;;;6.65;;
22628;SDS011;11481;53.694;9.910;2023-06-26T00:43:21;9.35;;;7.05;;
22628;SDS011;11481;53.694;9.910;2023-06-26T00:45:48;11.13;;;6.40;;
22628;SDS011;11481;53.694;9.910;2023-06-26T00:48:14;9.07;;;6.75;;
22628;SDS011;11481;53.694;9.910;2023-06-26T00:50:41;8.45;;;6.68;;
22628;SDS011;11481;53.694;9.910;2023-06-26T00:53:11;8.85;;;6.78;;
22628;SDS011;11481;53.694;9.910;2023-06-26T00:55:38;7.80;;;6.68;;
22628;SDS011;11481;53.694;9.910;2023-06-26T00:58:05;9.93;;;6.80;;
22628;SDS011;11481;53.694;9.910;2023-06-26T01:00:32;9.63;;;7.03;;
22628;SDS011;11481;53.694;9.910;2023-06-26T01:02:58;8.27;;;6.50;;
22628;SDS011;11481;53.694;9.910;2023-06-26T01:05:27;10.27;;;7.53;;
22628;SDS011;11481;53.694;9.910;2023-06-26T01:07:56;9.23;;;7.18;;
22628;SDS011;11481;53.694;9.910;2023-06-26T01:10:24;9.43;;;6.97;;
22628;SDS011;11481;53.694;9.910;2023-06-26T01:12:53;10.52;;;7.40;;
22628;SDS011;11481;53.694;9.910;2023-06-26T01:15:20;9.70;;;7.40;;
22628;SDS011;11481;53.694;9.910;2023-06-26T01:17:47;11.20;;;8.10;;
22628;SDS011;11481;53.694;9.910;2023-06-26T01:20:14;15.73;;;7.30;;
22628;SDS011;11481;53.694;9.910;2023-06-26T01:22:49;9.48;;;7.10;;
22628;SDS011;11481;53.694;9.910;2023-06-26T01:28:10;10.95;;;7.22;;
22628;SDS011;11481;53.694;9.910;2023-06-26T01:30:41;9.43;;;7.60;;
22628;SDS011;11481;53.694;9.910;2023-06-26T01:33:10;10.27;;;8.35;;
22628;SDS011;11481;53.694;9.910;2023-06-26T01:35:38;13.40;;;7.93;;
22628;SDS011;11481;53.694;9.910;2023-06-26T01:38:13;9.85;;;7.85;;
22628;SDS011;11481;53.694;9.910;2023-06-26T01:40:44;10.93;;;8.38;;
22628;SDS011;11481;53.694;9.910;2023-06-26T01:43:14;12.23;;;7.75;;
22628;SDS011;11481;53.694;9.910;2023-06-26T01:45:48;10.32;;;8.13;;
22628;SDS011;11481;53.694;9.910;2023-06-26T01:48:19;11.07;;;7.70;;
22628;SDS011;11481;53.694;9.910;2023-06-26T01:50:50;12.30;;;8.32;;
22628;SDS011;11481;53.694;9.910;2023-06-26T01:53:19;12.02;;;8.45;;
22628;SDS011;11481;53.694;9.910;2023-06-26T01:58:47;11.38;;;8.50;;
22628;SDS011;11481;53.694;9.910;2023-06-26T02:01:15;11.52;;;8.25;;
22628;SDS011;11481;53.694;9.910;2023-06-26T02:03:42;10.13;;;8.07;;
22628;SDS011;11481;53.694;9.910;2023-06-26T02:06:09;12.25;;;8.15;;
22628;SDS011;11481;53.694;9.910;2023-06-26T02:08:36;12.27;;;7.93;;
22628;SDS011;11481;53.694;9.910;2023-06-26T02:11:02;10.95;;;8.18;;
22628;SDS011;11481;53.694;9.910;2023-06-26T02:13:29;10.98;;;7.80;;
22628;SDS011;11481;53.694;9.910;2023-06-26T02:15:56;11.38;;;8.73;;
22628;SDS011;11481;53.694;9.910;2023-06-26T02:18:23;11.13;;;7.95;;
22628;SDS011;11481;53.694;9.910;2023-06-26T02:20:50;11.32;;;8.35;;
22628;SDS011;11481;53.694;9.910;2023-06-26T02:23:17;12.35;;;8.43;;
22628;SDS011;11481;53.694;9.910;2023-06-26T02:25:43;10.80;;;8.07;;
22628;SDS011;11481;53.694;9.910;2023-06-26T02:28:10;10.82;;;8.00;;
22628;SDS011;11481;53.694;9.910;2023-06-26T02:30:37;11.05;;;7.88;;
22628;SDS011;11481;53.694;9.910;2023-06-26T02:33:04;11.82;;;8.73;;
22628;SDS011;11481;53.694;9.910;2023-06-26T02:35:30;10.60;;;8.10;;
22628;SDS011;11481;53.694;9.910;2023-06-26T02:37:59;10.02;;;7.57;;
22628;SDS011;11481;53.694;9.910;2023-06-26T02:40:25;12.93;;;8.48;;
22628;SDS011;11481;53.694;9.910;2023-06-26T02:42:52;11.32;;;8.93;;
22628;SDS011;11481;53.694;9.910;2023-06-26T02:45:19;13.55;;;9.13;;
22628;SDS011;11481;53.694;9.910;2023-06-26T02:47:45;11.20;;;8.70;;
22628;SDS011;11481;53.694;9.910;2023-06-26T02:50:12;17.13;;;7.93;;
22628;SDS011;11481;53.694;9.910;2023-06-26T02:52:39;15.32;;;8.35;;
22628;SDS011;11481;53.694;9.910;2023-06-26T02:55:06;13.55;;;8.73;;
22628;SDS011;11481;53.694;9.910;2023-06-26T02:57:33;11.57;;;8.88;;
22628;SDS011;11481;53.694;9.910;2023-06-26T02:59:59;11.23;;;8.52;;
22628;SDS011;11481;53.694;9.910;2023-06-26T03:02:26;10.95;;;8.23;;
22628;SDS011;11481;53.694;9.910;2023-06-26T03:04:53;13.15;;;8.05;;
22628;SDS011;11481;53.694;9.910;2023-06-26T03:07:20;12.38;;;8.15;;
22628;SDS011;11481;53.694;9.910;2023-06-26T03:09:48;10.98;;;8.68;;
22628;SDS011;11481;53.694;9.910;2023-06-26T03:12:14;14.10;;;9.00;;
22628;SDS011;11481;53.694;9.910;2023-06-26T03:14:41;9.75;;;7.72;;
22628;SDS011;11481;53.694;9.910;2023-06-26T03:17:09;11.23;;;7.97;;
22628;SDS011;11481;53.694;9.910;2023-06-26T03:19:36;10.27;;;8.00;;
22628;SDS011;11481;53.694;9.910;2023-06-26T03:22:02;11.43;;;8.10;;
22628;SDS011;11481;53.694;9.910;2023-06-26T03:24:29;12.75;;;8.27;;
22628;SDS011;11481;53.694;9.910;2023-06-26T03:26:56;11.70;;;8.40;;
22628;SDS011;11481;53.694;9.910;2023-06-26T03:29:23;11.85;;;7.97;;
22628;SDS011;11481;53.694;9.910;2023-06-26T03:31:49;12.85;;;8.57;;
22628;SDS011;11481;53.694;9.910;2023-06-26T03:34:16;11.20;;;8.57;;
22628;SDS011;11481;53.694;9.910;2023-06-26T03:36:42;13.68;;;9.00;;
22628;SDS011;11481;53.694;9.910;2023-06-26T03:39:09;10.95;;;8.45;;
22628;SDS011;11481;53.694;9.910;2023-06-26T03:41:36;13.07;;;8.68;;
22628;SDS011;11481;53.694;9.910;2023-06-26T03:44:02;11.48;;;8.02;;
22628;SDS011;11481;53.694;9.910;2023-06-26T03:46:30;10.88;;;8.38;;
22628;SDS011;11481;53.694;9.910;2023-06-26T03:48:56;10.98;;;8.10;;
22628;SDS011;11481;53.694;9.910;2023-06-26T03:51:23;11.38;;;8.20;;
22628;SDS011;11481;53.694;9.910;2023-06-26T03:53:50;10.60;;;8.15;;
22628;SDS011;11481;53.694;9.910;2023-06-26T03:56:17;11.07;;;8.30;;
22628;SDS011;11481;53.694;9.910;2023-06-26T03:58:44;10.90;;;7.75;;
22628;SDS011;11481;53.694;9.910;2023-06-26T04:01:11;11.75;;;8.13;;
22628;SDS011;11481;53.694;9.910;2023-06-26T04:03:37;10.02;;;7.78;;
22628;SDS011;11481;53.694;9.910;2023-06-26T04:06:04;9.20;;;7.47;;
22628;SDS011;11481;53.694;9.910;2023-06-26T04:08:31;12.05;;;7.88;;
22628;SDS011;11481;53.694;9.910;2023-06-26T04:10:58;11.07;;;8.00;;
22628;SDS011;11481;53.694;9.910;2023-06-26T04:13:24;13.32;;;8.63;;
22628;SDS011;11481;53.694;9.910;2023-06-26T04:15:51;12.45;;;7.65;;
22628;SDS011;11481;53.694;9.910;2023-06-26T04:18:18;10.68;;;7.10;;
22628;SDS011;11481;53.694;9.910;2023-06-26T04:21:06;11.32;;;8.00;;
22628;SDS011;11481;53.694;9.910;2023-06-26T04:23:38;11.65;;;7.82;;
22628;SDS011;11481;53.694;9.910;2023-06-26T04:26:07;12.50;;;8.65;;
22628;SDS011;11481;53.694;9.910;2023-06-26T04:28:34;13.45;;;8.02;;
22628;SDS011;11481;53.694;9.910;2023-06-26T04:31:04;10.07;;;7.32;;
22628;SDS011;11481;53.694;9.910;2023-06-26T04:33:30;12.30;;;7.93;;
22628;SDS011;11481;53.694;9.910;2023-06-26T04:35:57;12.48;;;7.40;;
22628;SDS011;11481;53.694;9.910;2023-06-26T04:38:24;9.85;;;7.22;;
22628;SDS011;11481;53.694;9.910;2023-06-26T04:40:51;11.27;;;7.95;;
22628;SDS011;11481;53.694;9.910;2023-06-26T04:43:18;12.90;;;8.43;;
22628;SDS011;11481;53.694;9.910;2023-06-26T04:45:44;9.75;;;7.45;;
22628;SDS011;11481;53.694;9.910;2023-06-26T04:48:11;12.07;;;7.28;;
22628;SDS011;11481;53.694;9.910;2023-06-26T04:50:38;10.63;;;6.93;;
22628;SDS011;11481;53.694;9.910;2023-06-26T04:53:06;9.07;;;6.78;;
22628;SDS011;11481;53.694;9.910;2023-06-26T04:55:33;11.02;;;7.43;;
22628;SDS011;11481;53.694;9.910;2023-06-26T04:58:05;9.75;;;7.13;;
22628;SDS011;11481;53.694;9.910;2023-06-26T05:00:31;8.05;;;6.28;;
22628;SDS011;11481;53.694;9.910;2023-06-26T05:03:03;10.85;;;7.32;;
22628;SDS011;11481;53.694;9.910;2023-06-26T05:05:30;9.27;;;6.85;;
22628;SDS011;11481;53.694;9.910;2023-06-26T05:07:57;10.60;;;7.18;;
22628;SDS011;11481;53.694;9.910;2023-06-26T05:10:23;10.60;;;6.68;;
22628;SDS011;11481;53.694;9.910;2023-06-26T05:12:50;11.18;;;7.63;;
22628;SDS011;11481;53.694;9.910;2023-06-26T05:15:17;10.77;;;7.20;;
22628;SDS011;11481;53.694;9.910;2023-06-26T05:17:43;10.35;;;7.47;;
22628;SDS011;11481;53.694;9.910;2023-06-26T05:20:11;10.65;;;7.40;;
22628;SDS011;11481;53.694;9.910;2023-06-26T05:22:38;9.48;;;7.18;;
22628;SDS011;11481;53.694;9.910;2023-06-26T05:25:06;10.75;;;7.28;;
22628;SDS011;11481;53.694;9.910;2023-06-26T05:27:35;10.10;;;7.03;;
22628;SDS011;11481;53.694;9.910;2023-06-26T05:30:03;10.25;;;7.15;;
22628;SDS011;11481;53.694;9.910;2023-06-26T05:32:30;10.40;;;7.20;;
22628;SDS011;11481;53.694;9.910;2023-06-26T05:34:59;9.95;;;6.57;;
22628;SDS011;11481;53.694;9.910;2023-06-26T05:37:28;10.75;;;7.47;;
22628;SDS011;11481;53.694;9.910;2023-06-26T05:39:56;11.60;;;7.15;;
22628;SDS011;11481;53.694;9.910;2023-06-26T05:42:23;11.35;;;7.38;;
22628;SDS011;11481;53.694;9.910;2023-06-26T05:44:50;13.80;;;7.55;;
22628;SDS011;11481;53.694;9.910;2023-06-26T05:47:17;10.75;;;7.53;;
22628;SDS011;11481;53.694;9.910;2023-06-26T05:49:44;9.95;;;7.22;;
22628;SDS011;11481;53.694;9.910;2023-06-26T05:52:12;9.05;;;6.72;;
22628;SDS011;11481;53.694;9.910;2023-06-26T05:54:40;9.52;;;6.30;;
22628;SDS011;11481;53.694;9.910;2023-06-26T05:57:08;10.85;;;7.07;;
22628;SDS011;11481;53.694;9.910;2023-06-26T05:59:35;9.88;;;7.22;;
22628;SDS011;11481;53.694;9.910;2023-06-26T06:02:05;10.88;;;7.47;;
22628;SDS011;11481;53.694;9.910;2023-06-26T06:04:34;11.80;;;7.38;;
22628;SDS011;11481;53.694;9.910;2023-06-26T06:07:01;9.45;;;6.90;;
22628;SDS011;11481;53.694;9.910;2023-06-26T06:09:28;9.25;;;6.53;;
22628;SDS011;11481;53.694;9.910;2023-06-26T06:11:55;9.70;;;6.78;;
22628;SDS011;11481;53.694;9.910;2023-06-26T06:14:23;9.82;;;7.03;;
22628;SDS011;11481;53.694;9.910;2023-06-26T06:16:50;9.07;;;6.55;;
22628;SDS011;11481;53.694;9.910;2023-06-26T06:19:18;10.15;;;6.75;;
22628;SDS011;11481;53.694;9.910;2023-06-26T06:21:45;12.48;;;7.20;;
22628;SDS011;11481;53.694;9.910;2023-06-26T06:24:12;12.07;;;6.65;;
22628;SDS011;11481;53.694;9.910;2023-06-26T06:26:38;10.50;;;7.65;;
22628;SDS011;11481;53.694;9.910;2023-06-26T06:29:05;9.40;;;5.95;;
22628;SDS011;11481;53.694;9.910;2023-06-26T06:31:32;10.52;;;6.25;;
22628;SDS011;11481;53.694;9.910;2023-06-26T06:33:58;8.52;;;6.07;;
22628;SDS011;11481;53.694;9.910;2023-06-26T06:36:27;12.63;;;7.03;;
22628;SDS011;11481;53.694;9.910;2023-06-26T06:38:53;10.32;;;7.40;;
22628;SDS011;11481;53.694;9.910;2023-06-26T06:41:20;9.18;;;6.07;;
22628;SDS011;11481;53.694;9.910;2023-06-26T06:43:47;9.43;;;6.43;;
22628;SDS011;11481;53.694;9.910;2023-06-26T06:46:13;9.57;;;6.57;;
22628;SDS011;11481;53.694;9.910;2023-06-26T06:48:40;9.02;;;6.70;;
22628;SDS011;11481;53.694;9.910;2023-06-26T06:51:07;11.75;;;6.88;;
22628;SDS011;11481;53.694;9.910;2023-06-26T06:53:35;10.57;;;6.97;;
22628;SDS011;11481;53.694;9.910;2023-06-26T06:56:02;11.43;;;6.88;;
22628;SDS011;11481;53.694;9.910;2023-06-26T06:58:28;10.88;;;6.50;;
22628;SDS011;11481;53.694;9.910;2023-06-26T07:01:01;11.73;;;6.75;;
22628;SDS011;11481;53.694;9.910;2023-06-26T07:03:29;9.00;;;6.75;;
22628;SDS011;11481;53.694;9.910;2023-06-26T07:05:58;10.13;;;6.50;;
22628;SDS011;11481;53.694;9.910;2023-06-26T07:08:25;11.23;;;6.63;;
22628;SDS011;11481;53.694;9.910;2023-06-26T07:10:52;9.40;;;6.88;;
22628;SDS011;11481;53.694;9.910;2023-06-26T07:13:20;9.88;;;6.93;;
22628;SDS011;11481;53.694;9.910;2023-06-26T07:15:47;8.23;;;6.30;;
22628;SDS011;11481;53.694;9.910;2023-06-26T07:18:16;9.27;;;6.70;;
22628;SDS011;11481;53.694;9.910;2023-06-26T07:20:42;11.30;;;7.25;;
22628;SDS011;11481;53.694;9.910;2023-06-26T07:23:11;10.70;;;6.82;;
22628;SDS011;11481;53.694;9.910;2023-06-26T07:25:37;10.70;;;6.70;;
22628;SDS011;11481;53.694;9.910;2023-06-26T07:28:10;11.68;;;6.80;;
22628;SDS011;11481;53.694;9.910;2023-06-26T07:30:37;10.73;;;7.25;;
22628;SDS011;11481;53.694;9.910;2023-06-26T07:33:04;9.30;;;6.55;;
22628;SDS011;11481;53.694;9.910;2023-06-26T07:35:31;8.48;;;6.30;;
22628;SDS011;11481;53.694;9.910;2023-06-26T07:37:57;9.10;;;6.72;;
22628;SDS011;11481;53.694;9.910;2023-06-26T07:40:25;11.73;;;6.68;;
22628;SDS011;11481;53.694;9.910;2023-06-26T07:42:53;9.85;;;6.38;;
22628;SDS011;11481;53.694;9.910;2023-06-26T07:45:22;11.02;;;7.00;;
22628;SDS011;11481;53.694;9.910;2023-06-26T07:47:52;11.13;;;7.65;;
22628;SDS011;11481;53.694;9.910;2023-06-26T07:50:19;12.25;;;7.25;;
22628;SDS011;11481;53.694;9.910;2023-06-26T07:52:48;11.95;;;7.25;;
22628;SDS011;11481;53.694;9.910;2023-06-26T07:55:15;8.77;;;6.07;;
22628;SDS011;11481;53.694;9.910;2023-06-26T07:57:45;14.00;;;6.57;;
22628;SDS011;11481;53.694;9.910;2023-06-26T08:00:12;9.77;;;6.53;;
22628;SDS011;11481;53.694;9.910;2023-06-26T08:02:39;10.05;;;6.32;;
22628;SDS011;11481;53.694;9.910;2023-06-26T08:05:05;8.93;;;6.15;;
22628;SDS011;11481;53.694;9.910;2023-06-26T08:07:32;8.55;;;5.97;;
22628;SDS011;11481;53.694;9.910;2023-06-26T08:09:59;9.18;;;6.53;;
22628;SDS011;11481;53.694;9.910;2023-06-26T08:12:29;10.88;;;6.22;;
22628;SDS011;11481;53.694;9.910;2023-06-26T08:14:56;8.75;;;5.90;;
22628;SDS011;11481;53.694;9.910;2023-06-26T08:17:23;8.77;;;6.15;;
22628;SDS011;11481;53.694;9.910;2023-06-26T08:19:49;9.20;;;6.18;;
22628;SDS011;11481;53.694;9.910;2023-06-26T08:22:16;8.20;;;5.93;;
22628;SDS011;11481;53.694;9.910;2023-06-26T08:24:43;8.07;;;5.70;;
22628;SDS011;11481;53.694;9.910;2023-06-26T08:27:10;8.90;;;5.30;;
22628;SDS011;11481;53.694;9.910;2023-06-26T08:29:39;8.93;;;6.00;;
22628;SDS011;11481;53.694;9.910;2023-06-26T08:32:05;13.80;;;6.85;;
22628;SDS011;11481;53.694;9.910;2023-06-26T08:34:35;17.00;;;5.80;;
22628;SDS011;11481;53.694;9.910;2023-06-26T08:37:01;9.80;;;6.25;;
22628;SDS011;11481;53.694;9.910;2023-06-26T08:39:29;8.38;;;5.80;;
22628;SDS011;11481;53.694;9.910;2023-06-26T08:41:57;8.20;;;5.78;;
22628;SDS011;11481;53.694;9.910;2023-06-26T08:44:24;7.55;;;5.47;;
22628;SDS011;11481;53.694;9.910;2023-06-26T08:46:51;9.27;;;6.60;;
22628;SDS011;11481;53.694;9.910;2023-06-26T08:49:24;12.60;;;6.18;;
22628;SDS011;11481;53.694;9.910;2023-06-26T08:52:13;9.88;;;6.30;;
22628;SDS011;11481;53.694;9.910;2023-06-26T08:54:46;9.20;;;6.60;;
22628;SDS011;11481;53.694;9.910;2023-06-26T08:57:18;10.93;;;6.78;;
22628;SDS011;11481;53.694;9.910;2023-06-26T08:59:48;12.48;;;7.72;;
22628;SDS011;11481;53.694;9.910;2023-06-26T09:02:15;13.30;;;8.45;;
22628;SDS011;11481;53.694;9.910;2023-06-26T09:04:42;14.45;;;8.30;;
22628;SDS011;11481;53.694;9.910;2023-06-26T09:07:11;42.60;;;8.73;;
22628;SDS011;11481;53.694;9.910;2023-06-26T09:09:38;11.13;;;7.93;;
22628;SDS011;11481;53.694;9.910;2023-06-26T09:12:07;16.35;;;8.80;;
22628;SDS011;11481;53.694;9.910;2023-06-26T09:14:35;12.52;;;9.25;;
22628;SDS011;11481;53.694;9.910;2023-06-26T09:17:05;13.50;;;10.23;;
22628;SDS011;11481;53.694;9.910;2023-06-26T09:19:35;14.25;;;9.45;;
22628;SDS011;11481;53.694;9.910;2023-06-26T09:22:03;15.85;;;10.95;;
22628;SDS011;11481;53.694;9.910;2023-06-26T09:24:30;17.90;;;10.32;;
22628;SDS011;11481;53.694;9.910;2023-06-26T09:26:59;16.85;;;9.63;;
22628;SDS011;11481;53.694;9.910;2023-06-26T09:29:27;16.40;;;8.32;;
22628;SDS011;11481;53.694;9.910;2023-06-26T09:31:55;13.25;;;7.57;;
22628;SDS011;11481;53.694;9.910;2023-06-26T09:34:29;13.75;;;7.68;;
22628;SDS011;11481;53.694;9.910;2023-06-26T09:36:58;14.32;;;8.10;;
22628;SDS011;11481;53.694;9.910;2023-06-26T09:39:30;16.92;;;8.57;;
22628;SDS011;11481;53.694;9.910;2023-06-26T09:41:59;12.32;;;8.55;;
22628;SDS011;11481;53.694;9.910;2023-06-26T09:44:33;15.68;;;8.80;;
22628;SDS011;11481;53.694;9.910;2023-06-26T09:47:00;11.48;;;8.00;;
22628;SDS011;11481;53.694;9.910;2023-06-26T09:49:30;14.98;;;8.57;;
22628;SDS011;11481;53.694;9.910;2023-06-26T09:51:59;14.52;;;8.00;;
22628;SDS011;11481;53.694;9.910;2023-06-26T09:54:29;13.50;;;7.40;;
22628;SDS011;11481;53.694;9.910;2023-06-26T09:57:08;14.07;;;9.38;;
22628;SDS011;11481;53.694;9.910;2023-06-26T09:59:37;12.52;;;8.32;;
22628;SDS011;11481;53.694;9.910;2023-06-26T10:02:04;15.40;;;10.15;;
22628;SDS011;11481;53.694;9.910;2023-06-26T10:04:32;19.17;;;9.55;;
22628;SDS011;11481;53.694;9.910;2023-06-26T10:07:02;13.27;;;9.05;;
22628;SDS011;11481;53.694;9.910;2023-06-26T10:09:31;16.10;;;8.85;;
22628;SDS011;11481;53.694;9.910;2023-06-26T10:12:01;17.88;;;10.10;;
22628;SDS011;11481;53.694;9.910;2023-06-26T10:14:34;14.95;;;9.73;;
22628;SDS011;11481;53.694;9.910;2023-06-26T10:17:10;18.55;;;10.88;;
22628;SDS011;11481;53.694;9.910;2023-06-26T10:19:40;18.90;;;10.70;;
22628;SDS011;11481;53.694;9.910;2023-06-26T10:22:11;17.92;;;11.45;;
22628;SDS011;11481;53.694;9.910;2023-06-26T10:24:43;20.33;;;12.13;;
22628;SDS011;11481;53.694;9.910;2023-06-26T10:29:53;16.88;;;10.18;;
22628;SDS011;11481;53.694;9.910;2023-06-26T10:32:23;17.33;;;8.15;;
22628;SDS011;11481;53.694;9.910;2023-06-26T10:34:57;11.63;;;7.22;;
22628;SDS011;11481;53.694;9.910;2023-06-26T10:40:39;11.73;;;6.47;;
22628;SDS011;11481;53.694;9.910;2023-06-26T10:43:08;13.10;;;6.63;;
22628;SDS011;11481;53.694;9.910;2023-06-26T10:45:36;10.02;;;6.35;;
22628;SDS011;11481;53.694;9.910;2023-06-26T10:48:03;12.18;;;7.65;;
22628;SDS011;11481;53.694;9.910;2023-06-26T10:50:31;16.95;;;7.70;;
22628;SDS011;11481;53.694;9.910;2023-06-26T10:53:16;11.77;;;7.88;;
22628;SDS011;11481;53.694;9.910;2023-06-26T10:55:54;17.10;;;7.85;;
22628;SDS011;11481;53.694;9.910;2023-06-26T11:03:38;16.77;;;9.70;;
22628;SDS011;11481;53.694;9.910;2023-06-26T11:06:08;14.63;;;8.70;;
22628;SDS011;11481;53.694;9.910;2023-06-26T11:08:53;16.27;;;8.98;;
22628;SDS011;11481;53.694;9.910;2023-06-26T11:11:21;11.27;;;7.45;;
22628;SDS011;11481;53.694;9.910;2023-06-26T11:13:48;16.65;;;8.30;;
22628;SDS011;11481;53.694;9.910;2023-06-26T11:16:15;16.58;;;9.27;;
22628;SDS011;11481;53.694;9.910;2023-06-26T11:18:41;17.52;;;7.40;;
22628;SDS011;11481;53.694;9.910;2023-06-26T11:21:10;19.75;;;7.93;;
22628;SDS011;11481;53.694;9.910;2023-06-26T11:23:40;13.20;;;6.05;;
22628;SDS011;11481;53.694;9.910;2023-06-26T11:26:14;17.77;;;6.25;;
22628;SDS011;11481;53.694;9.910;2023-06-26T11:28:51;10.63;;;4.78;;
22628;SDS011;11481;53.694;9.910;2023-06-26T11:31:30;8.95;;;4.68;;
22628;SDS011;11481;53.694;9.910;2023-06-26T11:33:59;13.25;;;5.05;;
22628;SDS011;11481;53.694;9.910;2023-06-26T11:36:29;13.95;;;4.80;;
22628;SDS011;11481;53.694;9.910;2023-06-26T11:39:01;8.63;;;3.85;;
22628;SDS011;11481;53.694;9.910;2023-06-26T11:41:30;8.95;;;3.17;;
22628;SDS011;11481;53.694;9.910;2023-06-26T11:44:01;9.60;;;3.50;;
22628;SDS011;11481;53.694;9.910;2023-06-26T11:46:30;4.05;;;2.13;;
22628;SDS011;11481;53.694;9.910;2023-06-26T11:48:59;7.28;;;1.90;;
22628;SDS011;11481;53.694;9.910;2023-06-26T11:51:26;7.60;;;1.90;;
22628;SDS011;11481;53.694;9.910;2023-06-26T11:53:55;6.03;;;1.92;;
22628;SDS011;11481;53.694;9.910;2023-06-26T11:56:27;6.85;;;2.08;;
22628;SDS011;11481;53.694;9.910;2023-06-26T11:59:05;6.30;;;2.17;;
22628;SDS011;11481;53.694;9.910;2023-06-26T12:01:38;7.72;;;2.67;;
22628;SDS011;11481;53.694;9.910;2023-06-26T12:04:07;9.60;;;2.60;;
22628;SDS011;11481;53.694;9.910;2023-06-26T12:06:38;8.60;;;2.22;;
22628;SDS011;11481;53.694;9.910;2023-06-26T12:09:10;7.60;;;2.10;;
22628;SDS011;11481;53.694;9.910;2023-06-26T12:11:40;7.57;;;2.53;;
22628;SDS011;11481;53.694;9.910;2023-06-26T12:14:09;6.50;;;2.05;;
22628;SDS011;11481;53.694;9.910;2023-06-26T12:16:37;8.82;;;2.53;;
22628;SDS011;11481;53.694;9.910;2023-06-26T12:19:06;9.95;;;2.72;;
22628;SDS011;11481;53.694;9.910;2023-06-26T12:24:03;5.50;;;2.25;;
22628;SDS011;11481;53.694;9.910;2023-06-26T12:26:35;7.65;;;2.47;;
22628;SDS011;11481;53.694;9.910;2023-06-26T12:31:43;8.30;;;2.20;;
22628;SDS011;11481;53.694;9.910;2023-06-26T12:34:18;7.00;;;2.25;;
22628;SDS011;11481;53.694;9.910;2023-06-26T12:36:50;5.57;;;1.73;;
22628;SDS011;11481;53.694;9.910;2023-06-26T12:39:18;8.13;;;2.38;;
22628;SDS011;11481;53.694;9.910;2023-06-26T12:41:47;7.35;;;2.20;;
22628;SDS011;11481;53.694;9.910;2023-06-26T12:44:18;7.13;;;2.20;;
22628;SDS011;11481;53.694;9.910;2023-06-26T12:46:46;8.27;;;1.92;;
22628;SDS011;11481;53.694;9.910;2023-06-26T12:49:15;7.75;;;2.67;;
22628;SDS011;11481;53.694;9.910;2023-06-26T12:51:57;7.18;;;2.10;;
22628;SDS011;11481;53.694;9.910;2023-06-26T12:54:28;7.80;;;2.40;;
22628;SDS011;11481;53.694;9.910;2023-06-26T12:56:55;5.97;;;1.90;;
22628;SDS011;11481;53.694;9.910;2023-06-26T12:59:23;7.13;;;1.83;;
22628;SDS011;11481;53.694;9.910;2023-06-26T13:01:50;6.50;;;2.25;;
22628;SDS011;11481;53.694;9.910;2023-06-26T13:04:18;4.88;;;1.75;;
22628;SDS011;11481;53.694;9.910;2023-06-26T13:06:45;5.72;;;1.88;;
22628;SDS011;11481;53.694;9.910;2023-06-26T13:09:11;3.60;;;1.83;;
22628;SDS011;11481;53.694;9.910;2023-06-26T13:11:38;4.85;;;1.77;;
22628;SDS011;11481;53.694;9.910;2023-06-26T13:14:05;4.30;;;1.80;;
22628;SDS011;11481;53.694;9.910;2023-06-26T13:16:37;4.60;;;1.85;;
22628;SDS011;11481;53.694;9.910;2023-06-26T13:19:06;5.63;;;1.98;;
22628;SDS011;11481;53.694;9.910;2023-06-26T13:21:33;9.30;;;2.22;;
22628;SDS011;11481;53.694;9.910;2023-06-26T13:24:00;5.75;;;1.92;;
22628;SDS011;11481;53.694;9.910;2023-06-26T13:26:28;3.83;;;1.80;;
22628;SDS011;11481;53.694;9.910;2023-06-26T13:28:59;6.90;;;1.42;;
22628;SDS011;11481;53.694;9.910;2023-06-26T13:31:26;7.63;;;1.77;;
22628;SDS011;11481;53.694;9.910;2023-06-26T13:33:56;5.45;;;2.05;;
22628;SDS011;11481;53.694;9.910;2023-06-26T13:36:26;4.55;;;1.50;;
22628;SDS011;11481;53.694;9.910;2023-06-26T13:38:53;4.50;;;1.60;;
22628;SDS011;11481;53.694;9.910;2023-06-26T13:41:25;4.53;;;1.35;;
22628;SDS011;11481;53.694;9.910;2023-06-26T13:43:52;3.25;;;1.38;;
22628;SDS011;11481;53.694;9.910;2023-06-26T13:46:23;3.55;;;1.42;;
22628;SDS011;11481;53.694;9.910;2023-06-26T13:48:49;8.23;;;1.50;;
22628;SDS011;11481;53.694;9.910;2023-06-26T13:51:16;2.20;;;1.10;;
22628;SDS011;11481;53.694;9.910;2023-06-26T13:53:43;3.50;;;1.30;;
22628;SDS011;11481;53.694;9.910;2023-06-26T13:56:10;4.53;;;1.20;;
22628;SDS011;11481;53.694;9.910;2023-06-26T13:58:36;7.32;;;1.65;;
22628;SDS011;11481;53.694;9.910;2023-06-26T14:01:04;3.58;;;1.33;;
22628;SDS011;11481;53.694;9.910;2023-06-26T14:03:31;3.53;;;1.25;;
22628;SDS011;11481;53.694;9.910;2023-06-26T14:05:58;2.22;;;1.10;;
22628;SDS011;11481;53.694;9.910;2023-06-26T14:08:25;3.60;;;1.50;;
22628;SDS011;11481;53.694;9.910;2023-06-26T14:10:52;4.78;;;1.67;;
22628;SDS011;11481;53.694;9.910;2023-06-26T14:13:18;3.03;;;1.40;;
22628;SDS011;11481;53.694;9.910;2023-06-26T14:15:49;3.95;;;1.17;;
22628;SDS011;11481;53.694;9.910;2023-06-26T14:18:20;5.20;;;1.40;;
22628;SDS011;11481;53.694;9.910;2023-06-26T14:20:49;6.00;;;2.08;;
22628;SDS011;11481;53.694;9.910;2023-06-26T14:23:16;2.50;;;1.38;;
22628;SDS011;11481;53.694;9.910;2023-06-26T14:25:42;3.72;;;1.55;;
22628;SDS011;11481;53.694;9.910;2023-06-26T14:28:14;6.75;;;1.48;;
22628;SDS011;11481;53.694;9.910;2023-06-26T14:30:41;3.97;;;1.50;;
22628;SDS011;11481;53.694;9.910;2023-06-26T14:33:08;3.83;;;1.38;;
22628;SDS011;11481;53.694;9.910;2023-06-26T14:35:35;3.17;;;1.38;;
22628;SDS011;11481;53.694;9.910;2023-06-26T14:38:02;4.32;;;1.30;;
22628;SDS011;11481;53.694;9.910;2023-06-26T14:40:28;3.38;;;1.23;;
22628;SDS011;11481;53.694;9.910;2023-06-26T14:42:57;3.90;;;1.60;;
22628;SDS011;11481;53.694;9.910;2023-06-26T14:45:26;2.45;;;1.08;;
22628;SDS011;11481;53.694;9.910;2023-06-26T14:47:54;3.28;;;1.73;;
22628;SDS011;11481;53.694;9.910;2023-06-26T14:50:21;5.75;;;1.48;;
22628;SDS011;11481;53.694;9.910;2023-06-26T14:52:47;2.65;;;1.33;;
22628;SDS011;11481;53.694;9.910;2023-06-26T14:55:14;7.50;;;1.83;;
22628;SDS011;11481;53.694;9.910;2023-06-26T14:57:43;3.50;;;1.63;;
22628;SDS011;11481;53.694;9.910;2023-06-26T15:00:11;6.40;;;1.60;;
22628;SDS011;11481;53.694;9.910;2023-06-26T15:02:39;4.80;;;1.80;;
22628;SDS011;11481;53.694;9.910;2023-06-26T15:05:06;3.45;;;1.48;;
22628;SDS011;11481;53.694;9.910;2023-06-26T15:07:35;3.42;;;1.63;;
22628;SDS011;11481;53.694;9.910;2023-06-26T15:10:05;2.70;;;1.40;;